الصفحة الرئيسية
METAR-TAF:

METAR-TAF

مطار :

Puerto Montt, تشيلي

دائرة عرض: 41-25S, خط طول: 073-05W, ارتفاع: 85 متر

مراقبة الطقس الحالي

تاريخ ووقت الإصدار 42 دقيقة قبل الساعة 11:00UTC
ريح 2 عقدةمن اتجاهات متغيرة
درجة الحرارة 7°درجة مئوية
الرطوبة 100%
ضغط 1009 hPa
الرؤية 10 كم أو أكثر
غيوم مفككة على ارتفاع 2000 قدم
ملبد بالغيوم على ارتفاع 8000 قدم

METAR: SCTE 141100Z VRB02KT 9999 BKN020 OVC080 07/07 Q1009 NOSIG

زمن: 07:42 (11:42 UTC)

توقعات

تاريخ ووقت الإصدار 1ساعة و 27 دقيقة قبل الساعة 10:15UTC
التوقعات صالحة من14 الساعة 12 UTC إلى 15 الساعة 12 UTC
ريح 2 عقدةمن اتجاهات متغيرة
الرؤية 10 كم أو أكثر
غيوم مفككة على ارتفاع 3500 قدم
مؤقت
من 14 الساعة 12 UTC إلى 14 الساعة 16 UTC
الرؤية: 8000 متر
زخات من المطر
أصبح
من 14 الساعة 17 UTC إلى 14 الساعة 19 UTC
ريح 5 عقدة من الجنوب الغربي
أصبح
من 15 الساعة 04 UTC إلى 15 الساعة 06 UTC
ريح 2 عقدةمن اتجاهات متغيرة
الرؤية: 2000 متر
غيوم مفككة على ارتفاع 1500 قدم
غشاء,

TAF: SCTE 141015Z 1412/1512 VRB02KT 9999 BKN035 TN08/1413Z TX10/1419Z TEMPO 1412/1416 8000 SHRA BECMG 1417/1419 22005KT BECMG 1504/1506 VRB02KT 2000 BR BKN015

أرصاد الطقس والتوقعات من أكثر من 4000 مطار (تقارير الطقس للمطار METAR والتنبؤ بالطقس بالمطارTAF).

المحطات المتاحة هي النقط الصفراء والحمراء على الخريطة.

حرك المؤشر فوق النقطة لمعرفة اسم المحطة.

ثم انقر لمعرفة أرصاد وتوقعات الطقس.

لتغيير الخارطة: اضغط على الأزرار الخضراء مع رمز الصليب الأسود للتكبير. على الزر الأخضر مع شرطة للتصغير، أو على الأسهم الخضراء للخرائط المجاورة.


METAR-TAF: